Time;durP1;ratioP1;P1;durP2;ratioP2;P2;SDS_P1;SDS_P2;PMS_P1;PMS_P2;Temp;Humidity;BMP_temperature;BMP_pressure;BME280_temperature;BME280_humidity;BME280_pressure;Samples;Min_cycle;Max_cycle;Signal;HPM_P1;HPM_P2
2023/09/21 00:01:25;;;;;;;3.45;2.40;;;;;;;25.35;48.45;100129.59;41369875;28;20109;-76
2023/09/21 00:21:26;;;;;;;2.20;2.00;;;;;;;25.31;48.82;100122.94;41401367;28;20040;-78
2023/09/21 00:41:31;;;;;;;3.63;2.25;;;;;;;25.39;48.43;100139.78;41422121;28;20046;-78
2023/09/21 01:01:33;;;;;;;3.72;2.50;;;;;;;25.03;48.13;100076.16;41429204;28;20053;-78
2023/09/21 01:21:37;;;;;;;3.50;2.30;;;;;;;25.30;48.18;100108.03;41398530;28;20062;-79
2023/09/21 01:41:37;;;;;;;2.90;2.03;;;;;;;25.19;47.59;100093.19;41405913;28;20069;-80
2023/09/21 02:01:39;;;;;;;3.28;2.42;;;;;;;25.03;47.96;100059.44;41402359;28;20058;-76
2023/09/21 02:21:40;;;;;;;2.80;2.30;;;;;;;24.87;47.41;100023.06;41384601;28;20150;-78
2023/09/21 02:41:40;;;;;;;4.30;2.30;;;;;;;25.24;47.42;100054.66;41386381;28;20072;-77
2023/09/21 03:01:42;;;;;;;3.97;2.22;;;;;;;25.21;47.61;100054.94;41392206;28;20046;-77
2023/09/21 03:21:42;;;;;;;3.15;2.40;;;;;;;25.03;47.81;100046.19;41423308;28;20158;-78
2023/09/21 03:41:46;;;;;;;4.78;2.28;;;;;;;25.14;47.87;100038.00;41438379;28;20106;-77
2023/09/21 04:01:48;;;;;;;4.07;2.10;;;;;;;25.07;47.67;99999.88;41412426;28;20053;-76
2023/09/21 04:21:55;;;;;;;19.45;2.22;;;;;;;25.33;48.26;100010.50;41382979;28;20502;-76
2023/09/21 04:41:57;;;;;;;8.80;2.88;;;;;;;25.26;47.75;100006.81;41379747;28;20041;-78
2023/09/21 05:01:57;;;;;;;7.88;2.50;;;;;;;24.28;47.20;99987.22;41376670;28;20053;-73
2023/09/21 05:21:59;;;;;;;8.25;2.30;;;;;;;22.88;48.86;100021.41;41365034;28;20463;-75
2023/09/21 05:42:00;;;;;;;8.50;2.90;;;;;;;23.67;47.33;100037.00;41349823;28;20125;-71
2023/09/21 06:02:03;;;;;;;6.88;3.33;;;;;;;24.45;45.81;100029.75;41352828;28;20168;-73
2023/09/21 06:22:03;;;;;;;7.22;3.00;;;;;;;24.54;45.69;100044.72;41340180;28;20046;-72
2023/09/21 06:42:05;;;;;;;4.70;2.50;;;;;;;24.55;45.79;100025.19;41339719;28;20046;-76
2023/09/21 07:02:06;;;;;;;4.88;2.70;;;;;;;24.57;46.38;100001.22;41316318;28;20093;-71
2023/09/21 07:22:06;;;;;;;4.95;2.42;;;;;;;23.98;46.13;99983.06;41356285;28;20185;-72
2023/09/21 07:42:07;;;;;;;4.13;2.10;;;;;;;23.83;46.59;99946.50;41417110;28;20572;-74
2023/09/21 08:02:07;;;;;;;3.17;1.92;;;;;;;24.19;46.43;99971.41;41389087;28;20042;-74
2023/09/21 08:22:14;;;;;;;8.88;2.25;;;;;;;23.83;47.70;100030.28;41354403;28;20038;-74
2023/09/21 08:42:15;;;;;;;5.25;2.40;;;;;;;23.88;49.73;99995.50;41355254;28;20107;-73
2023/09/21 09:02:16;;;;;;;5.30;2.30;;;;;;;24.19;49.43;100013.72;41370809;28;20085;-74
2023/09/21 09:22:17;;;;;;;4.32;2.83;;;;;;;23.89;52.00;100000.63;41374566;28;20050;-78
2023/09/21 09:42:18;;;;;;;7.03;2.50;;;;;;;23.77;52.30;99933.06;41361536;28;20069;-75
2023/09/21 10:02:21;;;;;;;4.80;2.97;;;;;;;23.53;52.68;99910.63;41336333;28;20053;-75
2023/09/21 10:22:28;;;;;;;4.78;2.40;;;;;;;23.29;53.83;99924.34;41374654;28;20046;-76
2023/09/21 10:42:33;;;;;;;3.85;2.45;;;;;;;24.00;52.50;99932.66;41389482;28;20066;-74
2023/09/21 11:02:36;;;;;;;5.40;2.90;;;;;;;24.36;51.17;99885.09;41384730;28;20073;-76
2023/09/21 11:22:39;;;;;;;3.95;2.28;;;;;;;24.26;49.57;99856.88;41365293;28;21204;-77
2023/09/21 11:42:43;;;;;;;7.15;2.65;;;;;;;25.00;48.18;99808.94;41393649;28;20046;-78
2023/09/21 12:02:45;;;;;;;9.30;3.10;;;;;;;25.55;46.88;99785.66;41377657;28;20284;-77
2023/09/21 12:22:46;;;;;;;5.43;2.95;;;;;;;25.78;44.92;99748.75;41391428;28;20136;-76
2023/09/21 12:42:47;;;;;;;7.85;3.17;;;;;;;26.02;45.71;99724.03;41385808;28;20069;-74
2023/09/21 13:02:49;;;;;;;11.63;3.90;;;;;;;26.34;45.52;99706.44;41377982;28;20046;-79
2023/09/21 13:22:52;;;;;;;6.78;3.75;;;;;;;26.02;46.51;99683.41;41365949;28;20057;-78
2023/09/21 13:42:53;;;;;;;5.78;4.10;;;;;;;25.02;46.80;99490.94;41413744;28;20054;-81
2023/09/21 14:02:55;;;;;;;5.25;3.30;;;;;;;25.90;45.92;99643.13;41401731;28;20128;-76
2023/09/21 14:22:56;;;;;;;7.78;3.13;;;;;;;25.80;46.16;99602.72;41375672;28;20045;-78
2023/09/21 14:42:56;;;;;;;7.45;3.40;;;;;;;26.23;45.41;99599.81;41352393;28;20046;-74
2023/09/21 15:02:57;;;;;;;8.10;3.33;;;;;;;26.39;44.36;99570.56;41348839;28;20050;-74
2023/09/21 15:22:57;;;;;;;9.65;3.45;;;;;;;26.23;45.40;99531.63;41362830;28;20445;-76
2023/09/21 15:42:59;;;;;;;7.78;3.33;;;;;;;26.16;44.98;99523.56;41415113;28;20045;-74
2023/09/21 16:03:00;;;;;;;10.07;3.22;;;;;;;25.18;45.10;99413.28;41411936;28;20570;-74
2023/09/21 16:23:01;;;;;;;8.73;3.13;;;;;;;25.64;44.80;99516.09;41371357;28;20042;-73
2023/09/21 16:43:07;;;;;;;13.63;4.10;;;;;;;25.49;45.77;99502.69;41346569;28;22171;-73
2023/09/21 17:03:07;;;;;;;10.95;3.70;;;;;;;25.41;46.07;99492.94;41324806;28;20051;-72
2023/09/21 17:23:10;;;;;;;7.80;3.17;;;;;;;25.55;46.12;99484.28;41317843;28;20494;-73
2023/09/21 17:43:11;;;;;;;12.15;4.00;;;;;;;25.59;46.76;99484.78;41318455;28;20096;-71
2023/09/21 18:03:12;;;;;;;12.25;4.88;;;;;;;25.60;46.75;99491.72;41314005;28;20052;-69
2023/09/21 18:23:12;;;;;;;12.45;4.80;;;;;;;25.78;46.80;99541.06;41317676;28;20510;-68
2023/09/21 18:43:14;;;;;;;37.50;13.55;;;;;;;25.75;48.34;99528.16;41324492;28;20057;-72
2023/09/21 19:03:18;;;;;;;21.83;8.93;;;;;;;25.80;47.91;99510.72;41309510;28;20061;-71
2023/09/21 19:23:20;;;;;;;17.70;8.40;;;;;;;25.80;48.33;99521.31;41290992;28;20470;-71
2023/09/21 19:43:21;;;;;;;17.98;8.60;;;;;;;25.68;48.99;99517.38;41299487;28;20046;-70
2023/09/21 20:03:24;;;;;;;13.32;7.72;;;;;;;25.44;49.57;99520.91;41298779;28;20046;-72
2023/09/21 20:23:26;;;;;;;19.98;7.53;;;;;;;25.51;50.04;99546.59;41329208;28;20046;-70
2023/09/21 20:43:27;;;;;;;10.35;6.90;;;;;;;25.53;50.43;99546.41;41352611;28;20084;-73
2023/09/21 21:03:27;;;;;;;13.95;7.05;;;;;;;25.53;50.06;99531.31;41358290;28;20156;-71
2023/09/21 21:23:28;;;;;;;12.05;6.68;;;;;;;25.51;50.08;99521.91;41347353;28;20038;-70
2023/09/21 21:43:29;;;;;;;9.98;6.20;;;;;;;25.47;49.74;99515.28;41334485;28;20072;-70
2023/09/21 22:03:30;;;;;;;10.98;6.07;;;;;;;25.41;50.00;99512.31;41311102;28;20135;-69
2023/09/21 22:23:32;;;;;;;8.02;5.35;;;;;;;25.24;49.77;99476.19;41330527;28;20050;-72
2023/09/21 22:43:32;;;;;;;8.63;5.63;;;;;;;25.45;50.28;99502.22;41337810;28;20137;-71
2023/09/21 23:03:33;;;;;;;10.95;5.70;;;;;;;25.41;50.06;99517.63;41337568;28;20133;-72
2023/09/21 23:23:33;;;;;;;7.05;5.15;;;;;;;25.28;50.67;99506.69;41330595;28;20176;-72
2023/09/21 23:43:41;;;;;;;7.75;5.45;;;;;;;25.42;50.50;99539.63;41330156;28;20046;-71
